International Virtual Aviation Organisation

Eastern Europe and Northern Asia MCD

 
UWGG 101100Z VRB02MPS CAVOK 11/M06 Q1027 R18L/090060 NOSIG
QNH:(hPa/inHg/mmHg)1027 / 30.33 / 770
QFE:(hPa/inHg/mmHg)1018 / 30.05 / 763
Temperature11
Dew Point-6
Visibility> 10000
WeatherCAVOK
Cloud Cover
Transition Height900 m./3300 ft.
Transition LevelFL40
SQUAWK